Aviation Digital Data Service (ADDS)

Output produced by METARs form (2021 UTC 23 January 2019)
found at http://www.aviationweather.gov/metar/data/
 
METAR text: LFQQ 232000Z AUTO 03006KT 5000 BR OVC012 M01/M02 Q1005 BECMG BKN008
Conditions at: LFQQ (LILLE/LESQUIN , FR) observed 2000 UTC 23 January 2019
Temperature: -1.0°C (30°F)
Dewpoint: -2.0°C (28°F) [RH = 93%]
Pressure (altimeter): 29.68 inches Hg (1005.0 mb)
Winds: from the NNE (30 degrees) at 7 MPH (6 knots; 3.1 m/s)
Visibility: 3 miles ( 5 km)
Ceiling: 1200 feet AGL
Clouds: overcast cloud deck at 1200 feet AGL
Weather: BR  (mist)

METAR text: LFQQ 231930Z AUTO 02008KT 340V050 5000 BR OVC011 M01/M02 Q1005 BECMG BKN008
Conditions at: LFQQ (LILLE/LESQUIN , FR) observed 1930 UTC 23 January 2019
Temperature: -1.0°C (30°F)
Dewpoint: -2.0°C (28°F) [RH = 93%]
Pressure (altimeter): 29.68 inches Hg (1005.0 mb)
Winds: from the NNE (20 degrees) at 9 MPH (8 knots; 4.1 m/s)
Visibility: 3 miles ( 5 km)
Ceiling: 1100 feet AGL
Clouds: overcast cloud deck at 1100 feet AGL
Weather: BR  (mist)

METAR text: LFQQ 231900Z AUTO 02008KT 5000 BR BKN012 M02/M03 Q1004 BECMG BKN008
Conditions at: LFQQ (LILLE/LESQUIN , FR) observed 1900 UTC 23 January 2019
Temperature: -2.0°C (28°F)
Dewpoint: -3.0°C (27°F) [RH = 93%]
Pressure (altimeter): 29.65 inches Hg (1004.0 mb)
Winds: from the NNE (20 degrees) at 9 MPH (8 knots; 4.1 m/s)
Visibility: 3 miles ( 5 km)
Ceiling: 1200 feet AGL
Clouds: broken clouds at 1200 feet AGL
Weather: BR  (mist)

METAR text: LFQQ 231830Z AUTO 35009KT 4800 BR NSC M02/M03 Q1004 BECMG BKN008
Conditions at: LFQQ (LILLE/LESQUIN , FR) observed 1830 UTC 23 January 2019
Temperature: -2.0°C (28°F)
Dewpoint: -3.0°C (27°F) [RH = 93%]
Pressure (altimeter): 29.65 inches Hg (1004.0 mb)
Winds: from the N (350 degrees) at 10 MPH (9 knots; 4.6 m/s)
Visibility: 2.98 miles (4.80 km)
Ceiling: at least 12,000 feet AGL
Clouds: sky clear below 12,000 feet AGL
Weather: BR  (mist)

METAR text: LFQQ 231800Z AUTO 35008KT 5000 BR NSC M02/M03 Q1004 BECMG BKN008
Conditions at: LFQQ (LILLE/LESQUIN , FR) observed 1800 UTC 23 January 2019
Temperature: -2.0°C (28°F)
Dewpoint: -3.0°C (27°F) [RH = 93%]
Pressure (altimeter): 29.65 inches Hg (1004.0 mb)
Winds: from the N (350 degrees) at 9 MPH (8 knots; 4.1 m/s)
Visibility: 3 miles ( 5 km)
Ceiling: at least 12,000 feet AGL
Clouds: sky clear below 12,000 feet AGL
Weather: BR  (mist)

METAR text: LFQQ 231730Z AUTO 35007KT 5000 BR NSC M02/M03 Q1003 BECMG BKN008
Conditions at: LFQQ (LILLE/LESQUIN , FR) observed 1730 UTC 23 January 2019
Temperature: -2.0°C (28°F)
Dewpoint: -3.0°C (27°F) [RH = 93%]
Pressure (altimeter): 29.62 inches Hg (1003.0 mb)
Winds: from the N (350 degrees) at 8 MPH (7 knots; 3.6 m/s)
Visibility: 3 miles ( 5 km)
Ceiling: at least 12,000 feet AGL
Clouds: sky clear below 12,000 feet AGL
Weather: BR  (mist)

METAR text: LFQQ 231700Z AUTO 35007KT 6000 NSC M01/M03 Q1003 NOSIG
Conditions at: LFQQ (LILLE/LESQUIN , FR) observed 1700 UTC 23 January 2019
Temperature: -1.0°C (30°F)
Dewpoint: -3.0°C (27°F) [RH = 86%]
Pressure (altimeter): 29.62 inches Hg (1003.0 mb)
Winds: from the N (350 degrees) at 8 MPH (7 knots; 3.6 m/s)
Visibility: 4 miles ( 6 km)
Ceiling: at least 12,000 feet AGL
Clouds: sky clear below 12,000 feet AGL
Weather: no significant weather observed at this time

METAR text: LFQQ 231630Z AUTO 35006KT 5000 BR NSC M01/M02 Q1002 NOSIG
Conditions at: LFQQ (LILLE/LESQUIN , FR) observed 1630 UTC 23 January 2019
Temperature: -1.0°C (30°F)
Dewpoint: -2.0°C (28°F) [RH = 93%]
Pressure (altimeter): 29.59 inches Hg (1002.0 mb)
Winds: from the N (350 degrees) at 7 MPH (6 knots; 3.1 m/s)
Visibility: 3 miles ( 5 km)
Ceiling: at least 12,000 feet AGL
Clouds: sky clear below 12,000 feet AGL
Weather: BR  (mist)

METAR text: LFQQ 231600Z AUTO 36006KT 6000 NSC M00/M02 Q1002 NOSIG
Conditions at: LFQQ (LILLE/LESQUIN , FR) observed 1600 UTC 23 January 2019
Temperature: 0.0°C (32°F)
Dewpoint: -2.0°C (28°F) [RH = 86%]
Pressure (altimeter): 29.59 inches Hg (1002.0 mb)
Winds: from the N (360 degrees) at 7 MPH (6 knots; 3.1 m/s)
Visibility: 4 miles ( 6 km)
Ceiling: at least 12,000 feet AGL
Clouds: sky clear below 12,000 feet AGL
Weather: no significant weather observed at this time

METAR text: LFQQ 231530Z AUTO 01007KT 7000 NSC 00/M02 Q1001 NOSIG
Conditions at: LFQQ (LILLE/LESQUIN , FR) observed 1530 UTC 23 January 2019
Temperature: 0.0°C (32°F)
Dewpoint: -2.0°C (28°F) [RH = 86%]
Pressure (altimeter): 29.56 inches Hg (1001.0 mb)
Winds: from the N (10 degrees) at 8 MPH (7 knots; 3.6 m/s)
Visibility: 4 miles ( 7 km)
Ceiling: at least 12,000 feet AGL
Clouds: sky clear below 12,000 feet AGL
Weather: no significant weather observed at this time

METAR text: LFQQ 231500Z AUTO 36008KT 6000 FEW009 00/M01 Q1001 TEMPO 4000 BR
Conditions at: LFQQ (LILLE/LESQUIN , FR) observed 1500 UTC 23 January 2019
Temperature: 0.0°C (32°F)
Dewpoint: -1.0°C (30°F) [RH = 93%]
Pressure (altimeter): 29.56 inches Hg (1001.0 mb)
Winds: from the N (360 degrees) at 9 MPH (8 knots; 4.1 m/s)
Visibility: 4 miles ( 6 km)
Ceiling: at least 12,000 feet AGL
Clouds: few clouds at 900 feet AGL
Weather: no significant weather observed at this time

METAR text: LFQQ 231430Z AUTO 36009KT 5000 BR FEW008 SCT150 01/M01 Q1000 NOSIG
Conditions at: LFQQ (LILLE/LESQUIN , FR) observed 1430 UTC 23 January 2019
Temperature: 1.0°C (34°F)
Dewpoint: -1.0°C (30°F) [RH = 86%]
Pressure (altimeter): 29.53 inches Hg (1000.0 mb)
Winds: from the N (360 degrees) at 10 MPH (9 knots; 4.6 m/s)
Visibility: 3 miles ( 5 km)
Ceiling: at least 12,000 feet AGL
Clouds: few clouds at 800 feet AGL
scattered clouds at 15000 feet AGL
Weather: BR  (mist)

METAR text: LFQQ 231400Z AUTO 36007KT 5000 BR FEW008 BKN076 OVC140 00/M01 Q1000 NOSIG
Conditions at: LFQQ (LILLE/LESQUIN , FR) observed 1400 UTC 23 January 2019
Temperature: 0.0°C (32°F)
Dewpoint: -1.0°C (30°F) [RH = 93%]
Pressure (altimeter): 29.53 inches Hg (1000.0 mb)
Winds: from the N (360 degrees) at 8 MPH (7 knots; 3.6 m/s)
Visibility: 3 miles ( 5 km)
Ceiling: 7600 feet AGL
Clouds: few clouds at 800 feet AGL
broken clouds at 7600 feet AGL
overcast cloud deck at 14000 feet AGL
Weather: BR  (mist)

METAR text: LFQQ 231330Z AUTO 01009KT 5000 BR SCT008 SCT012 BKN074 00/M01 Q0999 NOSIG
Conditions at: LFQQ (LILLE/LESQUIN , FR) observed 1330 UTC 23 January 2019
Temperature: 0.0°C (32°F)
Dewpoint: -1.0°C (30°F) [RH = 93%]
Pressure (altimeter): 29.50 inches Hg (999.0 mb)
Winds: from the N (10 degrees) at 10 MPH (9 knots; 4.6 m/s)
Visibility: 3 miles ( 5 km)
Ceiling: 7400 feet AGL
Clouds: scattered clouds at 800 feet AGL
scattered clouds at 1200 feet AGL
broken clouds at 7400 feet AGL
Weather: BR  (mist)

METAR text: LFQQ 231300Z AUTO 02010KT 5000 BR BKN008 BKN070 OVC096 01/M01 Q0999 BECMG BKN018
Conditions at: LFQQ (LILLE/LESQUIN , FR) observed 1300 UTC 23 January 2019
Temperature: 1.0°C (34°F)
Dewpoint: -1.0°C (30°F) [RH = 86%]
Pressure (altimeter): 29.50 inches Hg (999.0 mb)
Winds: from the NNE (20 degrees) at 12 MPH (10 knots; 5.1 m/s)
Visibility: 3 miles ( 5 km)
Ceiling: 800 feet AGL
Clouds: broken clouds at 800 feet AGL
broken clouds at 7000 feet AGL
overcast cloud deck at 9600 feet AGL
Weather: BR  (mist)

METAR text: LFQQ 231230Z AUTO 01010KT 5000 BR OVC007 00/M01 Q0999 BECMG BKN018
Conditions at: LFQQ (LILLE/LESQUIN , FR) observed 1230 UTC 23 January 2019
Temperature: 0.0°C (32°F)
Dewpoint: -1.0°C (30°F) [RH = 93%]
Pressure (altimeter): 29.50 inches Hg (999.0 mb)
Winds: from the N (10 degrees) at 12 MPH (10 knots; 5.1 m/s)
Visibility: 3 miles ( 5 km)
Ceiling: 700 feet AGL
Clouds: overcast cloud deck at 700 feet AGL
Weather: BR  (mist)

METAR text: LFQQ 231200Z AUTO 01008KT 5000 BR OVC007 00/M01 Q0998 BECMG BKN018
Conditions at: LFQQ (LILLE/LESQUIN , FR) observed 1200 UTC 23 January 2019
Temperature: 0.0°C (32°F)
Dewpoint: -1.0°C (30°F) [RH = 93%]
Pressure (altimeter): 29.47 inches Hg (998.0 mb)
Winds: from the N (10 degrees) at 9 MPH (8 knots; 4.1 m/s)
Visibility: 3 miles ( 5 km)
Ceiling: 700 feet AGL
Clouds: overcast cloud deck at 700 feet AGL
Weather: BR  (mist)

METAR text: LFQQ 231130Z AUTO 01009KT 6000 BKN007 OVC019 00/M01 Q0998 BECMG BKN020
Conditions at: LFQQ (LILLE/LESQUIN , FR) observed 1130 UTC 23 January 2019
Temperature: 0.0°C (32°F)
Dewpoint: -1.0°C (30°F) [RH = 93%]
Pressure (altimeter): 29.47 inches Hg (998.0 mb)
Winds: from the N (10 degrees) at 10 MPH (9 knots; 4.6 m/s)
Visibility: 4 miles ( 6 km)
Ceiling: 700 feet AGL
Clouds: broken clouds at 700 feet AGL
overcast cloud deck at 1900 feet AGL
Weather: no significant weather observed at this time

METAR text: LFQQ 231100Z AUTO 03010KT 7000 FEW008 BKN017 OVC028 00/M01 Q0998 TEMPO 3000 -SN OVC004
Conditions at: LFQQ (LILLE/LESQUIN , FR) observed 1100 UTC 23 January 2019
Temperature: 0.0°C (32°F)
Dewpoint: -1.0°C (30°F) [RH = 93%]
Pressure (altimeter): 29.47 inches Hg (998.0 mb)
Winds: from the NNE (30 degrees) at 12 MPH (10 knots; 5.1 m/s)
Visibility: 4 miles ( 7 km)
Ceiling: 1700 feet AGL
Clouds: few clouds at 800 feet AGL
broken clouds at 1700 feet AGL
overcast cloud deck at 2800 feet AGL
Weather: no significant weather observed at this time

METAR text: LFQQ 231030Z AUTO 03009KT 7000 BKN015 OVC025 M00/M01 Q0997 TEMPO 3000 -SN OVC004
Conditions at: LFQQ (LILLE/LESQUIN , FR) observed 1030 UTC 23 January 2019
Temperature: 0.0°C (32°F)
Dewpoint: -1.0°C (30°F) [RH = 93%]
Pressure (altimeter): 29.44 inches Hg (997.0 mb)
Winds: from the NNE (30 degrees) at 10 MPH (9 knots; 4.6 m/s)
Visibility: 4 miles ( 7 km)
Ceiling: 1500 feet AGL
Clouds: broken clouds at 1500 feet AGL
overcast cloud deck at 2500 feet AGL
Weather: no significant weather observed at this time

METAR text: LFQQ 231000Z AUTO 03009KT 7000 OVC011 M00/M01 Q0997 TEMPO 3000 -SN OVC004
Conditions at: LFQQ (LILLE/LESQUIN , FR) observed 1000 UTC 23 January 2019
Temperature: 0.0°C (32°F)
Dewpoint: -1.0°C (30°F) [RH = 93%]
Pressure (altimeter): 29.44 inches Hg (997.0 mb)
Winds: from the NNE (30 degrees) at 10 MPH (9 knots; 4.6 m/s)
Visibility: 4 miles ( 7 km)
Ceiling: 1100 feet AGL
Clouds: overcast cloud deck at 1100 feet AGL
Weather: no significant weather observed at this time

METAR text: LFQQ 230930Z AUTO 04010KT 7000 OVC008 M00/M01 Q0996 TEMPO 3000 -SN OVC004
Conditions at: LFQQ (LILLE/LESQUIN , FR) observed 0930 UTC 23 January 2019
Temperature: 0.0°C (32°F)
Dewpoint: -1.0°C (30°F) [RH = 93%]
Pressure (altimeter): 29.41 inches Hg (996.0 mb)
Winds: from the NE (40 degrees) at 12 MPH (10 knots; 5.1 m/s)
Visibility: 4 miles ( 7 km)
Ceiling: 800 feet AGL
Clouds: overcast cloud deck at 800 feet AGL
Weather: no significant weather observed at this time

METAR text: LFQQ 230900Z AUTO 03008KT 8000 OVC008 M00/M01 Q0996 TEMPO 3000 -SN OVC004
Conditions at: LFQQ (LILLE/LESQUIN , FR) observed 0900 UTC 23 January 2019
Temperature: 0.0°C (32°F)
Dewpoint: -1.0°C (30°F) [RH = 93%]
Pressure (altimeter): 29.41 inches Hg (996.0 mb)
Winds: from the NNE (30 degrees) at 9 MPH (8 knots; 4.1 m/s)
Visibility: 5 miles ( 8 km)
Ceiling: 800 feet AGL
Clouds: overcast cloud deck at 800 feet AGL
Weather: no significant weather observed at this time

METAR text: LFQQ 230830Z AUTO 04008KT 8000 OVC008 M00/M01 Q0995 TEMPO 3000 BR BECMG OVC011
Conditions at: LFQQ (LILLE/LESQUIN , FR) observed 0830 UTC 23 January 2019
Temperature: 0.0°C (32°F)
Dewpoint: -1.0°C (30°F) [RH = 93%]
Pressure (altimeter): 29.38 inches Hg (995.0 mb)
Winds: from the NE (40 degrees) at 9 MPH (8 knots; 4.1 m/s)
Visibility: 5 miles ( 8 km)
Ceiling: 800 feet AGL
Clouds: overcast cloud deck at 800 feet AGL
Weather: no significant weather observed at this time

METAR text: LFQQ 230800Z AUTO 04008KT 7000 OVC007 M00/M01 Q0995 BECMG 3000 BR OVC003
Conditions at: LFQQ (LILLE/LESQUIN , FR) observed 0800 UTC 23 January 2019
Temperature: 0.0°C (32°F)
Dewpoint: -1.0°C (30°F) [RH = 93%]
Pressure (altimeter): 29.38 inches Hg (995.0 mb)
Winds: from the NE (40 degrees) at 9 MPH (8 knots; 4.1 m/s)
Visibility: 4 miles ( 7 km)
Ceiling: 700 feet AGL
Clouds: overcast cloud deck at 700 feet AGL
Weather: no significant weather observed at this time

METAR text: LFQQ 230730Z AUTO 04008KT 9000 OVC005 M00/M01 Q0995 BECMG 3000 BR
Conditions at: LFQQ (LILLE/LESQUIN , FR) observed 0730 UTC 23 January 2019
Temperature: 0.0°C (32°F)
Dewpoint: -1.0°C (30°F) [RH = 93%]
Pressure (altimeter): 29.38 inches Hg (995.0 mb)
Winds: from the NE (40 degrees) at 9 MPH (8 knots; 4.1 m/s)
Visibility: 6 miles ( 9 km)
Ceiling: 500 feet AGL
Clouds: overcast cloud deck at 500 feet AGL
Weather: no significant weather observed at this time

METAR text: LFQQ 230700Z AUTO 05007KT 8000 BKN005 OVC009 M00/M00 Q0994 BECMG 3000 BR
Conditions at: LFQQ (LILLE/LESQUIN , FR) observed 0700 UTC 23 January 2019
Temperature: 0.0°C (32°F)
Dewpoint: 0.0°C (32°F) [RH = 100%]
Pressure (altimeter): 29.35 inches Hg (994.0 mb)
Winds: from the NE (50 degrees) at 8 MPH (7 knots; 3.6 m/s)
Visibility: 5 miles ( 8 km)
Ceiling: 500 feet AGL
Clouds: broken clouds at 500 feet AGL
overcast cloud deck at 900 feet AGL
Weather: no significant weather observed at this time

METAR text: LFQQ 230630Z AUTO 06006KT 6000 -SN OVC004 M00/M01 Q0994 BECMG 3000 BR
Conditions at: LFQQ (LILLE/LESQUIN , FR) observed 0630 UTC 23 January 2019
Temperature: 0.0°C (32°F)
Dewpoint: -1.0°C (30°F) [RH = 93%]
Pressure (altimeter): 29.35 inches Hg (994.0 mb)
Winds: from the ENE (60 degrees) at 7 MPH (6 knots; 3.1 m/s)
Visibility: 4 miles ( 6 km)
Ceiling: 400 feet AGL
Clouds: overcast cloud deck at 400 feet AGL
Weather: -SN  (light snow)

METAR text: LFQQ 230600Z AUTO 07006KT 6000 OVC004 M00/M01 Q0994 TEMPO 1300 SN
Conditions at: LFQQ (LILLE/LESQUIN , FR) observed 0600 UTC 23 January 2019
Temperature: 0.0°C (32°F)
Dewpoint: -1.0°C (30°F) [RH = 93%]
Pressure (altimeter): 29.35 inches Hg (994.0 mb)
Winds: from the ENE (70 degrees) at 7 MPH (6 knots; 3.1 m/s)
Visibility: 4 miles ( 6 km)
Ceiling: 400 feet AGL
Clouds: overcast cloud deck at 400 feet AGL
Weather: no significant weather observed at this time

METAR text: LFQQ 230530Z AUTO 08005KT 3700 -SN BR BKN004 OVC009 M00/M01 Q0993 TEMPO 1300 SN
Conditions at: LFQQ (LILLE/LESQUIN , FR) observed 0530 UTC 23 January 2019
Temperature: 0.0°C (32°F)
Dewpoint: -1.0°C (30°F) [RH = 93%]
Pressure (altimeter): 29.32 inches Hg (993.0 mb)
Winds: from the E (80 degrees) at 6 MPH (5 knots; 2.6 m/s)
Visibility: 2.30 miles (3.70 km)
Ceiling: 400 feet AGL
Clouds: broken clouds at 400 feet AGL
overcast cloud deck at 900 feet AGL
Weather: -SN BR  (light snow, mist)

METAR text: LFQQ 230500Z AUTO 09007KT 2300 -SN BR OVC004 M00/M01 Q0993 TEMPO 1200 SHSN OVC001 BKN015TCU BECMG 16010KT
Conditions at: LFQQ (LILLE/LESQUIN , FR) observed 0500 UTC 23 January 2019
Temperature: 0.0°C (32°F)
Dewpoint: -1.0°C (30°F) [RH = 93%]
Pressure (altimeter): 29.32 inches Hg (993.0 mb)
Winds: from the E (90 degrees) at 8 MPH (7 knots; 3.6 m/s)
Visibility: 1.43 miles (2.30 km)
Ceiling: 400 feet AGL
Clouds: overcast cloud deck at 400 feet AGL
Weather: -SN BR  (light snow, mist)

METAR text: LFQQ 230430Z AUTO 09007KT 2700 -SN BR OVC004 M00/M01 Q0993 TEMPO 1200 SHSN OVC001 BKN015TCU BECMG 16010KT
Conditions at: LFQQ (LILLE/LESQUIN , FR) observed 0430 UTC 23 January 2019
Temperature: 0.0°C (32°F)
Dewpoint: -1.0°C (30°F) [RH = 93%]
Pressure (altimeter): 29.32 inches Hg (993.0 mb)
Winds: from the E (90 degrees) at 8 MPH (7 knots; 3.6 m/s)
Visibility: 1.68 miles (2.70 km)
Ceiling: 400 feet AGL
Clouds: overcast cloud deck at 400 feet AGL
Weather: -SN BR  (light snow, mist)

METAR text: LFQQ 230400Z AUTO 10007KT 2100 -SN BR BKN004 OVC011 M00/M01 Q0993 TEMPO 1200 SHSN OVC001 BKN015TCU BECMG 16010KT
Conditions at: LFQQ (LILLE/LESQUIN , FR) observed 0400 UTC 23 January 2019
Temperature: 0.0°C (32°F)
Dewpoint: -1.0°C (30°F) [RH = 93%]
Pressure (altimeter): 29.32 inches Hg (993.0 mb)
Winds: from the E (100 degrees) at 8 MPH (7 knots; 3.6 m/s)
Visibility: 1.30 miles (2.09 km)
Ceiling: 400 feet AGL
Clouds: broken clouds at 400 feet AGL
overcast cloud deck at 1100 feet AGL
Weather: -SN BR  (light snow, mist)

METAR text: LFQQ 230330Z AUTO 11007KT 1700 SN BR OVC003 M00/M00 Q0994 TEMPO 1200 SHSN OVC001 BKN015TCU
Conditions at: LFQQ (LILLE/LESQUIN , FR) observed 0330 UTC 23 January 2019
Temperature: 0.0°C (32°F)
Dewpoint: 0.0°C (32°F) [RH = 100%]
Pressure (altimeter): 29.35 inches Hg (994.0 mb)
Winds: from the ESE (110 degrees) at 8 MPH (7 knots; 3.6 m/s)
Visibility: 1.06 miles (1.71 km)
Ceiling: 300 feet AGL
Clouds: overcast cloud deck at 300 feet AGL
Weather: SN BR  (moderate snow, mist)

METAR text: LFQQ 230300Z AUTO 13006KT 1400 1300 R26/1800N R08/1900D SN BR BKN003 OVC008 M00/M00 Q0994 TEMPO OVC001 BKN015TCU
Conditions at: LFQQ (LILLE/LESQUIN , FR) observed 0300 UTC 23 January 2019
Temperature: 0.0°C (32°F)
Dewpoint: 0.0°C (32°F) [RH = 100%]
Pressure (altimeter): 29.35 inches Hg (994.0 mb)
Winds: from the SE (130 degrees) at 7 MPH (6 knots; 3.1 m/s)
Visibility: 0.87 miles (1.40 km)
Ceiling: 300 feet AGL
Clouds: broken clouds at 300 feet AGL
overcast cloud deck at 800 feet AGL
Weather: SN BR  (moderate snow, mist)

METAR text: LFQQ 230230Z AUTO 14010KT 1400 1200 R26/P2000 R08/1800U +SN BR OVC003 M00/M00 Q0994 TEMPO OVC001 BKN015TCU
Conditions at: LFQQ (LILLE/LESQUIN , FR) observed 0230 UTC 23 January 2019
Temperature: 0.0°C (32°F)
Dewpoint: 0.0°C (32°F) [RH = 100%]
Pressure (altimeter): 29.35 inches Hg (994.0 mb)
Winds: from the SE (140 degrees) at 12 MPH (10 knots; 5.1 m/s)
Visibility: 0.87 miles (1.40 km)
Ceiling: 300 feet AGL
Clouds: overcast cloud deck at 300 feet AGL
Weather: +SN BR  (heavy snow, mist)

METAR text: LFQQ 230200Z AUTO 14008KT 1400 1200 R26/1800U R08/1600D SN BR OVC003/// ///TCU 00/00 Q0995 TEMPO OVC001 BKN015TCU
Conditions at: LFQQ (LILLE/LESQUIN , FR) observed 0200 UTC 23 January 2019
Temperature: 0.0°C (32°F)
Dewpoint: 0.0°C (32°F) [RH = 100%]
Pressure (altimeter): 29.38 inches Hg (995.0 mb)
Winds: from the SE (140 degrees) at 9 MPH (8 knots; 4.1 m/s)
Visibility: 0.87 miles (1.40 km)
Ceiling: 300 feet AGL
Clouds: overcast cloud deck at 300 feet AGL
Weather: SN BR  (moderate snow, mist)

METAR text: LFQQ 230130Z AUTO 14009KT 1500 1300 R26/2000N R08/1600U SN BR OVC003 00/00 Q0995 TEMPO OVC001 BKN015TCU
Conditions at: LFQQ (LILLE/LESQUIN , FR) observed 0130 UTC 23 January 2019
Temperature: 0.0°C (32°F)
Dewpoint: 0.0°C (32°F) [RH = 100%]
Pressure (altimeter): 29.38 inches Hg (995.0 mb)
Winds: from the SE (140 degrees) at 10 MPH (9 knots; 4.6 m/s)
Visibility: 0.93 miles (1.50 km)
Ceiling: 300 feet AGL
Clouds: overcast cloud deck at 300 feet AGL
Weather: SN BR  (moderate snow, mist)

METAR text: LFQQ 230100Z AUTO 14009KT 1800 SN BR OVC003/// ///TCU 00/00 Q0995 TEMPO 1200 SHSN OVC001 BKN015TCU
Conditions at: LFQQ (LILLE/LESQUIN , FR) observed 0100 UTC 23 January 2019
Temperature: 0.0°C (32°F)
Dewpoint: 0.0°C (32°F) [RH = 100%]
Pressure (altimeter): 29.38 inches Hg (995.0 mb)
Winds: from the SE (140 degrees) at 10 MPH (9 knots; 4.6 m/s)
Visibility: 1.12 miles (1.80 km)
Ceiling: 300 feet AGL
Clouds: overcast cloud deck at 300 feet AGL
Weather: SN BR  (moderate snow, mist)

METAR text: LFQQ 230030Z AUTO 14010KT 1600 1400 R26/1800D R08/1800N SN BR OVC003/// ///TCU 00/00 Q0995 TEMPO 1200 SHSN OVC001 BKN015TCU
Conditions at: LFQQ (LILLE/LESQUIN , FR) observed 0030 UTC 23 January 2019
Temperature: 0.0°C (32°F)
Dewpoint: 0.0°C (32°F) [RH = 100%]
Pressure (altimeter): 29.38 inches Hg (995.0 mb)
Winds: from the SE (140 degrees) at 12 MPH (10 knots; 5.1 m/s)
Visibility: 0.99 miles (1.59 km)
Ceiling: 300 feet AGL
Clouds: overcast cloud deck at 300 feet AGL
Weather: SN BR  (moderate snow, mist)

METAR text: LFQQ 230000Z AUTO 14010KT 2000 -SN BR OVC004 00/00 Q0996 TEMPO 1200 SHSN OVC001 BKN015TCU
Conditions at: LFQQ (LILLE/LESQUIN , FR) observed 0000 UTC 23 January 2019
Temperature: 0.0°C (32°F)
Dewpoint: 0.0°C (32°F) [RH = 100%]
Pressure (altimeter): 29.41 inches Hg (996.0 mb)
Winds: from the SE (140 degrees) at 12 MPH (10 knots; 5.1 m/s)
Visibility: 1.24 miles (2.00 km)
Ceiling: 400 feet AGL
Clouds: overcast cloud deck at 400 feet AGL
Weather: -SN BR  (light snow, mist)

METAR text: LFQQ 222330Z AUTO 14009KT 3100 -SN BR OVC004 00/00 Q0996 TEMPO 1200 SHSN OVC001 BKN015TCU
Conditions at: LFQQ (LILLE/LESQUIN , FR) observed 2330 UTC 22 January 2019
Temperature: 0.0°C (32°F)
Dewpoint: 0.0°C (32°F) [RH = 100%]
Pressure (altimeter): 29.41 inches Hg (996.0 mb)
Winds: from the SE (140 degrees) at 10 MPH (9 knots; 4.6 m/s)
Visibility: 1.93 miles (3.11 km)
Ceiling: 400 feet AGL
Clouds: overcast cloud deck at 400 feet AGL
Weather: -SN BR  (light snow, mist)

METAR text: LFQQ 222300Z AUTO 14009KT 2500 -SN BR OVC003 00/00 Q0997 TEMPO 1200 SHSN OVC001 BKN030TCU
Conditions at: LFQQ (LILLE/LESQUIN , FR) observed 2300 UTC 22 January 2019
Temperature: 0.0°C (32°F)
Dewpoint: 0.0°C (32°F) [RH = 100%]
Pressure (altimeter): 29.44 inches Hg (997.0 mb)
Winds: from the SE (140 degrees) at 10 MPH (9 knots; 4.6 m/s)
Visibility: 1.55 miles (2.49 km)
Ceiling: 300 feet AGL
Clouds: overcast cloud deck at 300 feet AGL
Weather: -SN BR  (light snow, mist)

METAR text: LFQQ 222230Z AUTO 14008KT 2900 -SN BR OVC003 00/00 Q0997 TEMPO 1200 SHSN OVC001 BKN030TCU
Conditions at: LFQQ (LILLE/LESQUIN , FR) observed 2230 UTC 22 January 2019
Temperature: 0.0°C (32°F)
Dewpoint: 0.0°C (32°F) [RH = 100%]
Pressure (altimeter): 29.44 inches Hg (997.0 mb)
Winds: from the SE (140 degrees) at 9 MPH (8 knots; 4.1 m/s)
Visibility: 1.80 miles (2.90 km)
Ceiling: 300 feet AGL
Clouds: overcast cloud deck at 300 feet AGL
Weather: -SN BR  (light snow, mist)

METAR text: LFQQ 222200Z AUTO 15008KT 3500 BR OVC003 01/00 Q0997 TEMPO 1200 SHSN OVC001 BKN030TCU
Conditions at: LFQQ (LILLE/LESQUIN , FR) observed 2200 UTC 22 January 2019
Temperature: 1.0°C (34°F)
Dewpoint: 0.0°C (32°F) [RH = 93%]
Pressure (altimeter): 29.44 inches Hg (997.0 mb)
Winds: from the SSE (150 degrees) at 9 MPH (8 knots; 4.1 m/s)
Visibility: 2.17 miles (3.49 km)
Ceiling: 300 feet AGL
Clouds: overcast cloud deck at 300 feet AGL
Weather: BR  (mist)

METAR text: LFQQ 222130Z AUTO 16009KT 4200 BR OVC003 00/00 Q0998 TEMPO 1200 SHSN OVC001 BKN030TCU
Conditions at: LFQQ (LILLE/LESQUIN , FR) observed 2130 UTC 22 January 2019
Temperature: 0.0°C (32°F)
Dewpoint: 0.0°C (32°F) [RH = 100%]
Pressure (altimeter): 29.47 inches Hg (998.0 mb)
Winds: from the SSE (160 degrees) at 10 MPH (9 knots; 4.6 m/s)
Visibility: 2.61 miles (4.20 km)
Ceiling: 300 feet AGL
Clouds: overcast cloud deck at 300 feet AGL
Weather: BR  (mist)

METAR text: LFQQ 222100Z AUTO 16009KT 3100 BR OVC002 00/00 Q0998 TEMPO 1200 SHSN OVC001 BKN030TCU
Conditions at: LFQQ (LILLE/LESQUIN , FR) observed 2100 UTC 22 January 2019
Temperature: 0.0°C (32°F)
Dewpoint: 0.0°C (32°F) [RH = 100%]
Pressure (altimeter): 29.47 inches Hg (998.0 mb)
Winds: from the SSE (160 degrees) at 10 MPH (9 knots; 4.6 m/s)
Visibility: 1.93 miles (3.11 km)
Ceiling: 200 feet AGL
Clouds: overcast cloud deck at 200 feet AGL
Weather: BR  (mist)

METAR text: LFQQ 222030Z AUTO 16009KT 3000 BR OVC002 00/00 Q0999 TEMPO 1200 SHSN OVC001 BKN030TCU
Conditions at: LFQQ (LILLE/LESQUIN , FR) observed 2030 UTC 22 January 2019
Temperature: 0.0°C (32°F)
Dewpoint: 0.0°C (32°F) [RH = 100%]
Pressure (altimeter): 29.50 inches Hg (999.0 mb)
Winds: from the SSE (160 degrees) at 10 MPH (9 knots; 4.6 m/s)
Visibility: 1.86 miles (2.99 km)
Ceiling: 200 feet AGL
Clouds: overcast cloud deck at 200 feet AGL
Weather: BR  (mist)

METAR text: LFQQ 222000Z AUTO 16010KT 2600 BR OVC002 00/00 Q0999 TEMPO 1200 SHSN OVC001 BKN030TCU
Conditions at: LFQQ (LILLE/LESQUIN , FR) observed 2000 UTC 22 January 2019
Temperature: 0.0°C (32°F)
Dewpoint: 0.0°C (32°F) [RH = 100%]
Pressure (altimeter): 29.50 inches Hg (999.0 mb)
Winds: from the SSE (160 degrees) at 12 MPH (10 knots; 5.1 m/s)
Visibility: 1.62 miles (2.61 km)
Ceiling: 200 feet AGL
Clouds: overcast cloud deck at 200 feet AGL
Weather: BR  (mist)

METAR text: LFQQ 221930Z AUTO 18010KT 2900 BR OVC002 00/00 Q1000 TEMPO 1200 SHSN OVC001 BKN030TCU
Conditions at: LFQQ (LILLE/LESQUIN , FR) observed 1930 UTC 22 January 2019
Temperature: 0.0°C (32°F)
Dewpoint: 0.0°C (32°F) [RH = 100%]
Pressure (altimeter): 29.53 inches Hg (1000.0 mb)
Winds: from the S (180 degrees) at 12 MPH (10 knots; 5.1 m/s)
Visibility: 1.80 miles (2.90 km)
Ceiling: 200 feet AGL
Clouds: overcast cloud deck at 200 feet AGL
Weather: BR  (mist)

METAR text: LFQQ 221900Z AUTO 17010KT 3300 BR OVC002 00/00 Q1000 BECMG OVC006
Conditions at: LFQQ (LILLE/LESQUIN , FR) observed 1900 UTC 22 January 2019
Temperature: 0.0°C (32°F)
Dewpoint: 0.0°C (32°F) [RH = 100%]
Pressure (altimeter): 29.53 inches Hg (1000.0 mb)
Winds: from the S (170 degrees) at 12 MPH (10 knots; 5.1 m/s)
Visibility: 2.05 miles (3.30 km)
Ceiling: 200 feet AGL
Clouds: overcast cloud deck at 200 feet AGL
Weather: BR  (mist)

METAR text: LFQQ 221830Z AUTO 18008KT 3600 BR OVC002 00/00 Q1000 BECMG OVC006
Conditions at: LFQQ (LILLE/LESQUIN , FR) observed 1830 UTC 22 January 2019
Temperature: 0.0°C (32°F)
Dewpoint: 0.0°C (32°F) [RH = 100%]
Pressure (altimeter): 29.53 inches Hg (1000.0 mb)
Winds: from the S (180 degrees) at 9 MPH (8 knots; 4.1 m/s)
Visibility: 2.24 miles (3.60 km)
Ceiling: 200 feet AGL
Clouds: overcast cloud deck at 200 feet AGL
Weather: BR  (mist)

METAR text: LFQQ 221800Z AUTO 17007KT 4000 BR OVC003 00/00 Q1000 BECMG OVC006
Conditions at: LFQQ (LILLE/LESQUIN , FR) observed 1800 UTC 22 January 2019
Temperature: 0.0°C (32°F)
Dewpoint: 0.0°C (32°F) [RH = 100%]
Pressure (altimeter): 29.53 inches Hg (1000.0 mb)
Winds: from the S (170 degrees) at 8 MPH (7 knots; 3.6 m/s)
Visibility: 2.49 miles (4.01 km)
Ceiling: 300 feet AGL
Clouds: overcast cloud deck at 300 feet AGL
Weather: BR  (mist)

METAR text: LFQQ 221730Z AUTO 17009KT 4300 BR OVC003 01/00 Q1001 BECMG OVC006
Conditions at: LFQQ (LILLE/LESQUIN , FR) observed 1730 UTC 22 January 2019
Temperature: 1.0°C (34°F)
Dewpoint: 0.0°C (32°F) [RH = 93%]
Pressure (altimeter): 29.56 inches Hg (1001.0 mb)
Winds: from the S (170 degrees) at 10 MPH (9 knots; 4.6 m/s)
Visibility: 2.67 miles (4.30 km)
Ceiling: 300 feet AGL
Clouds: overcast cloud deck at 300 feet AGL
Weather: BR  (mist)

METAR text: LFQQ 221700Z AUTO 17010KT 4500 BR OVC004 01/00 Q1001 BECMG 6000 NSW OVC006
Conditions at: LFQQ (LILLE/LESQUIN , FR) observed 1700 UTC 22 January 2019
Temperature: 1.0°C (34°F)
Dewpoint: 0.0°C (32°F) [RH = 93%]
Pressure (altimeter): 29.56 inches Hg (1001.0 mb)
Winds: from the S (170 degrees) at 12 MPH (10 knots; 5.1 m/s)
Visibility: 2.80 miles (4.51 km)
Ceiling: 400 feet AGL
Clouds: overcast cloud deck at 400 feet AGL
Weather: BR  (mist)

METAR text: LFQQ 221630Z AUTO 18008KT 3800 BR OVC004 01/00 Q1001 BECMG 6000 NSW OVC006
Conditions at: LFQQ (LILLE/LESQUIN , FR) observed 1630 UTC 22 January 2019
Temperature: 1.0°C (34°F)
Dewpoint: 0.0°C (32°F) [RH = 93%]
Pressure (altimeter): 29.56 inches Hg (1001.0 mb)
Winds: from the S (180 degrees) at 9 MPH (8 knots; 4.1 m/s)
Visibility: 2.36 miles (3.80 km)
Ceiling: 400 feet AGL
Clouds: overcast cloud deck at 400 feet AGL
Weather: BR  (mist)

METAR text: LFQQ 221600Z AUTO 17008KT 3300 BR OVC005 01/00 Q1001 BECMG 6000 NSW
Conditions at: LFQQ (LILLE/LESQUIN , FR) observed 1600 UTC 22 January 2019
Temperature: 1.0°C (34°F)
Dewpoint: 0.0°C (32°F) [RH = 93%]
Pressure (altimeter): 29.56 inches Hg (1001.0 mb)
Winds: from the S (170 degrees) at 9 MPH (8 knots; 4.1 m/s)
Visibility: 2.05 miles (3.30 km)
Ceiling: 500 feet AGL
Clouds: overcast cloud deck at 500 feet AGL
Weather: BR  (mist)

METAR text: LFQQ 221530Z AUTO 18008KT 3700 BR OVC005 01/00 Q1002 BECMG 6000 NSW
Conditions at: LFQQ (LILLE/LESQUIN , FR) observed 1530 UTC 22 January 2019
Temperature: 1.0°C (34°F)
Dewpoint: 0.0°C (32°F) [RH = 93%]
Pressure (altimeter): 29.59 inches Hg (1002.0 mb)
Winds: from the S (180 degrees) at 9 MPH (8 knots; 4.1 m/s)
Visibility: 2.30 miles (3.70 km)
Ceiling: 500 feet AGL
Clouds: overcast cloud deck at 500 feet AGL
Weather: BR  (mist)

METAR text: LFQQ 221500Z AUTO 17007KT 4000 BR OVC006 01/00 Q1002 BECMG 6000 NSW
Conditions at: LFQQ (LILLE/LESQUIN , FR) observed 1500 UTC 22 January 2019
Temperature: 1.0°C (34°F)
Dewpoint: 0.0°C (32°F) [RH = 93%]
Pressure (altimeter): 29.59 inches Hg (1002.0 mb)
Winds: from the S (170 degrees) at 8 MPH (7 knots; 3.6 m/s)
Visibility: 2.49 miles (4.01 km)
Ceiling: 600 feet AGL
Clouds: overcast cloud deck at 600 feet AGL
Weather: BR  (mist)

METAR text: LFQQ 221430Z AUTO 18009KT 4400 BR OVC006 01/M00 Q1002 BECMG 6000 NSW
Conditions at: LFQQ (LILLE/LESQUIN , FR) observed 1430 UTC 22 January 2019
Temperature: 1.0°C (34°F)
Dewpoint: 0.0°C (32°F) [RH = 93%]
Pressure (altimeter): 29.59 inches Hg (1002.0 mb)
Winds: from the S (180 degrees) at 10 MPH (9 knots; 4.6 m/s)
Visibility: 2.73 miles (4.39 km)
Ceiling: 600 feet AGL
Clouds: overcast cloud deck at 600 feet AGL
Weather: BR  (mist)

METAR text: LFQQ 221400Z AUTO 18010KT 4400 BR OVC007 00/M00 Q1002 BECMG 6000 NSW
Conditions at: LFQQ (LILLE/LESQUIN , FR) observed 1400 UTC 22 January 2019
Temperature: 0.0°C (32°F)
Dewpoint: 0.0°C (32°F) [RH = 100%]
Pressure (altimeter): 29.59 inches Hg (1002.0 mb)
Winds: from the S (180 degrees) at 12 MPH (10 knots; 5.1 m/s)
Visibility: 2.73 miles (4.39 km)
Ceiling: 700 feet AGL
Clouds: overcast cloud deck at 700 feet AGL
Weather: BR  (mist)

METAR text: LFQQ 221330Z AUTO 18010KT 4900 BR OVC008 00/M00 Q1003 BECMG 6000 NSW
Conditions at: LFQQ (LILLE/LESQUIN , FR) observed 1330 UTC 22 January 2019
Temperature: 0.0°C (32°F)
Dewpoint: 0.0°C (32°F) [RH = 100%]
Pressure (altimeter): 29.62 inches Hg (1003.0 mb)
Winds: from the S (180 degrees) at 12 MPH (10 knots; 5.1 m/s)
Visibility: 3 miles ( 5 km)
Ceiling: 800 feet AGL
Clouds: overcast cloud deck at 800 feet AGL
Weather: BR  (mist)

METAR text: LFQQ 221300Z AUTO 18009KT 5000 BR OVC008 00/M01 Q1003 NOSIG
Conditions at: LFQQ (LILLE/LESQUIN , FR) observed 1300 UTC 22 January 2019
Temperature: 0.0°C (32°F)
Dewpoint: -1.0°C (30°F) [RH = 93%]
Pressure (altimeter): 29.62 inches Hg (1003.0 mb)
Winds: from the S (180 degrees) at 10 MPH (9 knots; 4.6 m/s)
Visibility: 3 miles ( 5 km)
Ceiling: 800 feet AGL
Clouds: overcast cloud deck at 800 feet AGL
Weather: BR  (mist)

METAR text: LFQQ 221230Z AUTO 18010KT 5000 BR OVC008 M00/M01 Q1004 NOSIG
Conditions at: LFQQ (LILLE/LESQUIN , FR) observed 1230 UTC 22 January 2019
Temperature: 0.0°C (32°F)
Dewpoint: -1.0°C (30°F) [RH = 93%]
Pressure (altimeter): 29.65 inches Hg (1004.0 mb)
Winds: from the S (180 degrees) at 12 MPH (10 knots; 5.1 m/s)
Visibility: 3 miles ( 5 km)
Ceiling: 800 feet AGL
Clouds: overcast cloud deck at 800 feet AGL
Weather: BR  (mist)

METAR text: LFQQ 221200Z AUTO 18010KT 5000 BR OVC009 M00/M01 Q1004 TEMPO 18015G25KT 2000 SN OVC003
Conditions at: LFQQ (LILLE/LESQUIN , FR) observed 1200 UTC 22 January 2019
Temperature: 0.0°C (32°F)
Dewpoint: -1.0°C (30°F) [RH = 93%]
Pressure (altimeter): 29.65 inches Hg (1004.0 mb)
Winds: from the S (180 degrees) at 12 MPH (10 knots; 5.1 m/s)
Visibility: 3 miles ( 5 km)
Ceiling: 900 feet AGL
Clouds: overcast cloud deck at 900 feet AGL
Weather: BR  (mist)

METAR text: LFQQ 221130Z AUTO 17012KT 5000 BR OVC009 M00/M01 Q1004 NOSIG
Conditions at: LFQQ (LILLE/LESQUIN , FR) observed 1130 UTC 22 January 2019
Temperature: 0.0°C (32°F)
Dewpoint: -1.0°C (30°F) [RH = 93%]
Pressure (altimeter): 29.65 inches Hg (1004.0 mb)
Winds: from the S (170 degrees) at 14 MPH (12 knots; 6.2 m/s)
Visibility: 3 miles ( 5 km)
Ceiling: 900 feet AGL
Clouds: overcast cloud deck at 900 feet AGL
Weather: BR  (mist)

METAR text: LFQQ 221100Z AUTO 17013KT 4300 BR BKN008 OVC015 M01/M01 Q1004 TEMPO 17020G30KT OVC002 BECMG 6000 NSW
Conditions at: LFQQ (LILLE/LESQUIN , FR) observed 1100 UTC 22 January 2019
Temperature: -1.0°C (30°F)
Dewpoint: -1.0°C (30°F) [RH = 100%]
Pressure (altimeter): 29.65 inches Hg (1004.0 mb)
Winds: from the S (170 degrees) at 15 MPH (13 knots; 6.7 m/s)
Visibility: 2.67 miles (4.30 km)
Ceiling: 800 feet AGL
Clouds: broken clouds at 800 feet AGL
overcast cloud deck at 1500 feet AGL
Weather: BR  (mist)

METAR text: LFQQ 221030Z AUTO 18013KT 2100 -SN BR OVC007 M01/M01 Q1005 TEMPO 17020G30KT OVC002 BECMG 6000 NSW
Conditions at: LFQQ (LILLE/LESQUIN , FR) observed 1030 UTC 22 January 2019
Temperature: -1.0°C (30°F)
Dewpoint: -1.0°C (30°F) [RH = 100%]
Pressure (altimeter): 29.68 inches Hg (1005.0 mb)
Winds: from the S (180 degrees) at 15 MPH (13 knots; 6.7 m/s)
Visibility: 1.30 miles (2.09 km)
Ceiling: 700 feet AGL
Clouds: overcast cloud deck at 700 feet AGL
Weather: -SN BR  (light snow, mist)

METAR text: LFQQ 221000Z AUTO 17015KT 3900 BR OVC008 M01/M01 Q1005 TEMPO 17020G30KT 1500 SN OVC002
Conditions at: LFQQ (LILLE/LESQUIN , FR) observed 1000 UTC 22 January 2019
Temperature: -1.0°C (30°F)
Dewpoint: -1.0°C (30°F) [RH = 100%]
Pressure (altimeter): 29.68 inches Hg (1005.0 mb)
Winds: from the S (170 degrees) at 17 MPH (15 knots; 7.7 m/s)
Visibility: 2.42 miles (3.89 km)
Ceiling: 800 feet AGL
Clouds: overcast cloud deck at 800 feet AGL
Weather: BR  (mist)

METAR text: LFQQ 220930Z AUTO 16013KT 1900 -SN BR BKN006 OVC011 M01/M02 Q1005 TEMPO 17020G30KT SN OVC002
Conditions at: LFQQ (LILLE/LESQUIN , FR) observed 0930 UTC 22 January 2019
Temperature: -1.0°C (30°F)
Dewpoint: -2.0°C (28°F) [RH = 93%]
Pressure (altimeter): 29.68 inches Hg (1005.0 mb)
Winds: from the SSE (160 degrees) at 15 MPH (13 knots; 6.7 m/s)
Visibility: 1.18 miles (1.90 km)
Ceiling: 600 feet AGL
Clouds: broken clouds at 600 feet AGL
overcast cloud deck at 1100 feet AGL
Weather: -SN BR  (light snow, mist)

METAR text: LFQQ 220900Z AUTO 16017KT 1500 -SN BR BKN006 OVC013 M02/M02 Q1005 TEMPO 17020G30KT SN OVC002
Conditions at: LFQQ (LILLE/LESQUIN , FR) observed 0900 UTC 22 January 2019
Temperature: -2.0°C (28°F)
Dewpoint: -2.0°C (28°F) [RH = 100%]
Pressure (altimeter): 29.68 inches Hg (1005.0 mb)
Winds: from the SSE (160 degrees) at 20 MPH (17 knots; 8.7 m/s)
Visibility: 0.93 miles (1.50 km)
Ceiling: 600 feet AGL
Clouds: broken clouds at 600 feet AGL
overcast cloud deck at 1300 feet AGL
Weather: -SN BR  (light snow, mist)

METAR text: LFQQ 220830Z AUTO 17014KT 1300 1200 R26/1900D R08/1600U -SN BR OVC005 M02/M02 Q1006 TEMPO 17020G30KT 1500 SN
Conditions at: LFQQ (LILLE/LESQUIN , FR) observed 0830 UTC 22 January 2019
Temperature: -2.0°C (28°F)
Dewpoint: -2.0°C (28°F) [RH = 100%]
Pressure (altimeter): 29.70 inches Hg (1006.0 mb)
Winds: from the S (170 degrees) at 16 MPH (14 knots; 7.2 m/s)
Visibility: 0.81 miles (1.30 km)
Ceiling: 500 feet AGL
Clouds: overcast cloud deck at 500 feet AGL
Weather: -SN BR  (light snow, mist)

Forecast for: LFQQ (LILLE/LESQUIN , FR)
Text: TAF LFQQ 231700Z 2318/2424 36008KT 6000 NSC
Forecast period: 1800 UTC 23 January 2019 to 0000 UTC 25 January 2019
Forecast type: FROM: standard forecast or significant change
Winds: from the N (360 degrees) at 9 MPH (8 knots; 4.1 m/s)
Visibility: 4 miles (6 km)
Ceiling: unknown
Clouds: missing
Weather: no significant weather forecast for this period
Text: BECMG 2318/2321 4000 BR BKN008
Forecast period: 1800 to 2200 UTC 23 January 2019
Forecast type: BECOMING: Conditions expected to become as follows by 2100 UTC 23 January 2019
Winds: from the N (360 degrees) at 9 MPH (8 knots; 4.1 m/s)
Visibility: 2.49 miles (4.01 km)
Ceiling: 800 feet AGL
Clouds: broken clouds at 800 feet AGL
Weather: BR  (mist)
Text: BECMG 2322/2401 1500 BR OVC003
Forecast period: 2200 UTC 23 January 2019 to 0900 UTC 24 January 2019
Forecast type: BECOMING: Conditions expected to become as follows by 0100 UTC 24 January 2019
Winds: from the N (360 degrees) at 9 MPH (8 knots; 4.1 m/s)
Visibility: 0.93 miles (1.50 km)
Ceiling: 300 feet AGL
Clouds: overcast cloud deck at 300 feet AGL
Weather: BR  (mist)
Text: PROB40 2401/2408 0300 FZFG VV///
Forecast period: 0100 to 0800 UTC 24 January 2019
Forecast type: PROBABLE: 40 percent likelihood of the following during this time
Visibility: 0.19 miles (0.31 km)
Ceiling: unknown
Clouds: missing
Weather: FZFG  (freezing fog)
Text: BECMG 2409/2412 9999 NSW BKN020
Forecast period: 0900 UTC 24 January 2019 to 0000 UTC 25 January 2019
Forecast type: BECOMING: Conditions expected to become as follows by 1200 UTC 24 January 2019
Winds: from the N (360 degrees) at 9 MPH (8 knots; 4.1 m/s)
Visibility: 6 or more miles 10+ km)
Ceiling: 2000 feet AGL
Clouds: broken clouds at 2000 feet AGL
Weather: NSW  (no significant weather)
Text: PROB30
Forecast period: 0900 to 1500 UTC 24 January 2019
Forecast type: TEMPORARY: The following changes expected for less than half the time period
Visibility: 0.93 miles (1.50 km)
Ceiling: 500 feet AGL
Clouds: broken clouds at 500 feet AGL
broken clouds at 1500 feet AGL
Weather: SHSN SHRA  (snow showers, rain showers)
Text: TEMPO 2409/2415 1500 SHSNRA BKN005 BKN015TCU
Forecast period: 1900 UTC 24 January 2019 to 0000 UTC 25 January 2019
Forecast type: TEMPORARY: The following changes expected for less than half the time period
Visibility: 1.86 miles (2.99 km)
Ceiling: 900 feet AGL
Clouds: broken clouds at 900 feet AGL
Weather: RA  (moderate rain)